Time;durP1;ratioP1;P1;durP2;ratioP2;P2;SDS_P1;SDS_P2;PMS_P1;PMS_P2;Temp;Humidity;BMP_temperature;BMP_pressure;BME280_temperature;BME280_humidity;BME280_pressure;Samples;Min_cycle;Max_cycle;Signal;HPM_P1;HPM_P2
2022/12/06 00:01:25;;;;;;;6.57;4.87;;;;;;;-0.81;100.00;97956.66;18305281;32;20443;-64
2022/12/06 00:11:30;;;;;;;6.93;4.30;;;;;;;-0.86;100.00;97948.47;18305073;32;20072;-65
2022/12/06 00:21:35;;;;;;;18.23;8.80;;;;;;;-0.98;100.00;97956.13;18305143;32;20415;-65
2022/12/06 00:31:38;;;;;;;14.27;6.93;;;;;;;-1.04;100.00;97952.38;18303916;32;20059;-65
2022/12/06 00:41:41;;;;;;;8.27;5.30;;;;;;;-1.14;100.00;97929.81;18303649;32;20047;-65
2022/12/06 00:51:44;;;;;;;8.53;5.67;;;;;;;-1.15;100.00;97929.00;18303160;32;20062;-65
2022/12/06 01:01:47;;;;;;;9.77;5.90;;;;;;;-1.18;100.00;97926.69;18302332;32;20053;-65
2022/12/06 01:11:50;;;;;;;8.37;5.80;;;;;;;-1.27;100.00;97926.00;18302328;32;20073;-65
2022/12/06 01:21:52;;;;;;;9.87;6.30;;;;;;;-1.27;100.00;97912.75;18288441;32;20094;-65
2022/12/06 01:31:54;;;;;;;8.07;5.53;;;;;;;-1.03;100.00;97916.88;18301157;32;20054;-65
2022/12/06 01:41:56;;;;;;;7.13;5.17;;;;;;;-0.84;100.00;97917.25;18300655;32;20105;-65
2022/12/06 01:52:03;;;;;;;7.67;5.20;;;;;;;-0.64;100.00;97906.78;18300255;32;20100;-65
2022/12/06 02:02:07;;;;;;;7.33;5.20;;;;;;;-0.53;100.00;97900.94;18299622;32;20138;-65
2022/12/06 02:12:14;;;;;;;7.53;5.03;;;;;;;-0.72;100.00;97902.44;18285250;32;20050;-65
2022/12/06 02:22:22;;;;;;;6.50;4.50;;;;;;;-0.98;100.00;97896.91;18297622;32;20053;-65
2022/12/06 02:32:46;;;;;;;7.40;4.83;;;;;;;-1.18;100.00;97880.78;18298392;32;20343;-66
2022/12/06 02:43:00;;;;;;;7.83;5.07;;;;;;;-1.33;100.00;97872.88;18297851;32;20556;-65
2022/12/06 02:53:06;;;;;;;10.30;5.60;;;;;;;-1.42;100.00;97861.59;18297678;32;20049;-65
2022/12/06 03:03:17;;;;;;;7.17;5.13;;;;;;;-1.47;100.00;97869.28;18296514;32;20054;-66
2022/12/06 03:13:37;;;;;;;7.30;5.60;;;;;;;-1.52;100.00;97861.88;18296285;32;20069;-65
2022/12/06 03:23:43;;;;;;;9.03;5.80;;;;;;;-1.52;100.00;97864.53;18295904;32;20366;-66
2022/12/06 03:33:54;;;;;;;7.07;4.90;;;;;;;-1.49;100.00;97864.16;18294925;32;20114;-66
2022/12/06 03:43:58;;;;;;;8.10;6.00;;;;;;;-1.57;100.00;97851.03;18295381;32;20119;-66
2022/12/06 03:54:04;;;;;;;8.30;5.87;;;;;;;-1.52;100.00;97853.94;18294674;32;20421;-66
2022/12/06 04:04:06;;;;;;;9.20;5.57;;;;;;;-1.39;100.00;97846.09;18294070;32;20058;-66
2022/12/06 04:14:09;;;;;;;9.77;5.80;;;;;;;-1.28;100.00;97844.78;18294053;32;20084;-66
2022/12/06 04:24:12;;;;;;;7.67;5.63;;;;;;;-1.15;100.00;97836.13;18293075;32;20066;-66
2022/12/06 04:44:36;;;;;;;9.03;6.37;;;;;;;-0.95;100.00;97830.16;18299315;32;20458;-66
2022/12/06 04:54:40;;;;;;;9.33;6.37;;;;;;;-0.93;100.00;97833.44;18289558;32;20097;-66
2022/12/06 05:04:43;;;;;;;8.60;6.07;;;;;;;-1.03;100.00;97831.94;18302462;32;20069;-66
2022/12/06 05:14:45;;;;;;;8.83;5.90;;;;;;;-1.23;100.00;97828.31;18302027;32;20105;-66
2022/12/06 05:24:48;;;;;;;9.67;6.27;;;;;;;-1.32;100.00;97822.28;18301819;32;20366;-66
2022/12/06 05:34:51;;;;;;;9.07;5.43;;;;;;;-1.32;100.00;97824.13;18287367;32;20038;-66
2022/12/06 05:44:53;;;;;;;9.43;6.27;;;;;;;-1.40;100.00;97820.59;18300598;32;20114;-66
2022/12/06 05:54:56;;;;;;;7.80;5.03;;;;;;;-1.41;100.00;97818.94;18286338;32;20446;-66
2022/12/06 06:04:59;;;;;;;8.00;5.60;;;;;;;-1.46;100.00;97821.34;18299578;32;20077;-66
2022/12/06 06:15:03;;;;;;;7.93;5.00;;;;;;;-1.47;100.00;97827.66;18298802;32;20072;-66
2022/12/06 06:25:07;;;;;;;7.68;5.75;;;;;;;-1.58;100.00;97823.66;18298629;32;20429;-66
2022/12/06 06:35:10;;;;;;;8.77;5.50;;;;;;;-1.77;100.00;97819.81;18298182;32;20073;-66
2022/12/06 06:45:13;;;;;;;7.43;4.90;;;;;;;-1.97;100.00;97813.47;18283893;32;20058;-66
2022/12/06 06:55:16;;;;;;;7.57;5.40;;;;;;;-2.11;100.00;97810.66;18297037;32;20092;-66
2022/12/06 07:05:18;;;;;;;9.77;5.93;;;;;;;-2.16;100.00;97805.09;18295852;32;20128;-66
2022/12/06 07:15:21;;;;;;;8.37;5.43;;;;;;;-2.16;100.00;97815.69;18282781;32;20098;-66
2022/12/06 07:25:24;;;;;;;9.13;6.00;;;;;;;-2.23;100.00;97817.44;18295678;32;20105;-66
2022/12/06 07:35:27;;;;;;;9.03;6.00;;;;;;;-2.14;100.00;97813.66;18295302;32;20061;-66
2022/12/06 07:45:49;;;;;;;11.73;7.57;;;;;;;-2.09;100.00;97813.94;18294944;32;20061;-66
2022/12/06 07:55:52;;;;;;;9.77;6.50;;;;;;;-1.99;100.00;97812.81;18294597;32;20076;-66
2022/12/06 08:05:55;;;;;;;7.57;5.53;;;;;;;-1.99;100.00;97821.59;18293761;32;20054;-66
2022/12/06 08:15:59;;;;;;;10.07;6.33;;;;;;;-1.94;100.00;97813.09;18282318;32;20100;-66
2022/12/06 08:26:05;;;;;;;9.43;6.43;;;;;;;-1.80;100.00;97814.06;18304658;32;20110;-66
2022/12/06 08:36:11;;;;;;;10.43;6.40;;;;;;;-1.72;100.00;97817.41;18303787;32;20058;-66
2022/12/06 08:46:14;;;;;;;9.30;6.43;;;;;;;-1.57;100.00;97813.91;18303425;32;20062;-66
2022/12/06 08:56:16;;;;;;;10.97;6.97;;;;;;;-1.37;100.00;97829.97;18302726;32;20066;-66
2022/12/06 09:06:21;;;;;;;9.27;6.60;;;;;;;-1.16;100.00;97833.66;18302301;32;20422;-66
2022/12/06 09:16:24;;;;;;;10.13;6.80;;;;;;;-0.94;100.00;97850.38;18301958;32;20050;-66
2022/12/06 09:26:27;;;;;;;9.10;6.37;;;;;;;-0.70;100.00;97857.94;18300876;32;20416;-66
2022/12/06 09:36:30;;;;;;;11.03;6.23;;;;;;;-0.44;100.00;97851.16;18300717;32;20072;-66
2022/12/06 09:47:11;;;;;;;7.47;5.77;;;;;;;-0.20;100.00;97855.16;18300352;32;20054;-66
2022/12/06 09:57:37;;;;;;;11.20;7.53;;;;;;;0.02;100.00;97855.09;18299864;32;20069;-66
2022/12/06 10:07:45;;;;;;;10.40;6.78;;;;;;;0.27;100.00;97849.25;18299695;32;20066;-65
2022/12/06 10:17:51;;;;;;;10.20;7.13;;;;;;;0.49;100.00;97840.12;18285580;32;20362;-65
2022/12/06 10:28:14;;;;;;;8.37;6.30;;;;;;;0.60;100.00;97830.69;18272261;32;20053;-65
2022/12/06 10:38:48;;;;;;;8.30;6.43;;;;;;;0.86;100.00;97823.78;18270629;32;20423;-65
2022/12/06 10:49:13;;;;;;;8.27;6.00;;;;;;;1.08;100.00;97820.94;18297700;32;20429;-65
2022/12/06 10:59:36;;;;;;;8.07;6.23;;;;;;;1.27;100.00;97824.62;18297011;32;20046;-65
2022/12/06 11:09:43;;;;;;;10.50;6.90;;;;;;;1.46;100.00;97822.94;18296869;32;20058;-65
2022/12/06 11:20:04;;;;;;;10.63;7.10;;;;;;;1.79;100.00;97822.06;18282434;32;20054;-65
2022/12/06 11:30:16;;;;;;;9.17;6.77;;;;;;;2.00;100.00;97808.44;18281553;32;20084;-65
2022/12/06 11:40:29;;;;;;;12.33;8.17;;;;;;;2.18;100.00;97805.09;18295078;32;20072;-65
2022/12/06 11:50:35;;;;;;;14.60;9.00;;;;;;;2.32;100.00;97795.16;18295025;32;20072;-65
2022/12/06 12:00:59;;;;;;;12.87;8.83;;;;;;;2.56;100.00;97798.09;18293564;32;20062;-64
2022/12/06 12:11:28;;;;;;;12.97;8.47;;;;;;;2.78;100.00;97792.41;18281506;32;20115;-65
2022/12/06 12:21:41;;;;;;;13.00;9.30;;;;;;;3.02;100.00;97791.59;18279154;32;20062;-64
2022/12/06 12:31:54;;;;;;;12.97;9.00;;;;;;;3.16;100.00;97773.59;18292834;32;20108;-64
2022/12/06 12:41:57;;;;;;;14.47;9.90;;;;;;;3.28;100.00;97771.03;18292679;32;20153;-64
2022/12/06 12:52:20;;;;;;;15.57;9.80;;;;;;;3.39;100.00;97754.25;18292300;32;20076;-64
2022/12/06 13:02:30;;;;;;;13.07;8.50;;;;;;;3.40;100.00;97755.09;18294953;32;20098;-64
2022/12/06 13:12:33;;;;;;;12.17;8.63;;;;;;;3.44;100.00;97758.13;18302384;32;20058;-64
2022/12/06 13:22:39;;;;;;;15.63;10.20;;;;;;;3.45;100.00;97757.09;18301825;32;20073;-64
2022/12/06 13:33:07;;;;;;;12.37;9.03;;;;;;;3.56;100.00;97745.66;18301198;32;20132;-64
2022/12/06 13:43:25;;;;;;;11.73;9.10;;;;;;;3.64;100.00;97753.37;18287104;32;20105;-65
2022/12/06 13:53:32;;;;;;;12.83;9.03;;;;;;;3.63;100.00;97751.78;18300308;32;20059;-64
2022/12/06 14:03:39;;;;;;;11.93;8.13;;;;;;;3.49;100.00;97752.94;18299725;32;20426;-64
2022/12/06 14:14:16;;;;;;;12.67;8.77;;;;;;;3.44;100.00;97750.94;18299271;32;20084;-64
2022/12/06 14:24:24;;;;;;;13.23;9.10;;;;;;;3.36;100.00;97746.69;18278074;32;20045;-64
2022/12/06 14:34:32;;;;;;;13.20;9.03;;;;;;;3.28;100.00;97763.03;18298309;32;20058;-64
2022/12/06 14:44:35;;;;;;;11.70;7.87;;;;;;;3.36;100.00;97773.44;18298022;32;20109;-64
2022/12/06 14:54:42;;;;;;;14.13;8.47;;;;;;;3.64;100.00;97772.09;18297120;32;20150;-64
2022/12/06 15:04:45;;;;;;;12.10;8.87;;;;;;;3.69;100.00;97766.91;18296603;32;20046;-64
2022/12/06 15:14:48;;;;;;;13.47;8.70;;;;;;;3.72;100.00;97762.97;18295958;32;20438;-64
2022/12/06 15:24:54;;;;;;;10.20;7.67;;;;;;;3.68;100.00;97759.13;18295183;32;20073;-64
2022/12/06 15:34:57;;;;;;;13.93;8.73;;;;;;;3.55;100.00;97770.78;18295519;32;20144;-65
2022/12/06 15:45:00;;;;;;;12.00;8.10;;;;;;;3.42;100.00;97774.38;18294913;32;20068;-65
2022/12/06 15:55:04;;;;;;;10.10;7.60;;;;;;;3.24;100.00;97777.84;18294418;32;20058;-64
2022/12/06 16:05:13;;;;;;;10.90;7.63;;;;;;;3.06;100.00;97765.28;18293732;32;20390;-64
2022/12/06 16:15:16;;;;;;;11.87;8.67;;;;;;;2.98;100.00;97761.03;18293843;32;20063;-65
2022/12/06 16:25:19;;;;;;;13.57;9.17;;;;;;;3.00;100.00;97774.16;18293303;32;20070;-64
2022/12/06 16:35:22;;;;;;;12.87;8.90;;;;;;;3.14;100.00;97782.87;18293679;32;20066;-64
2022/12/06 16:45:25;;;;;;;10.17;8.13;;;;;;;3.15;100.00;97782.69;18303825;32;20070;-64
2022/12/06 16:55:29;;;;;;;10.80;7.53;;;;;;;3.11;100.00;97776.13;18303142;32;20131;-65
2022/12/06 17:05:32;;;;;;;10.67;6.27;;;;;;;3.04;100.00;97773.53;18302523;32;20046;-64
2022/12/06 17:15:35;;;;;;;9.43;6.83;;;;;;;3.01;100.00;97768.59;18302141;32;20054;-64
2022/12/06 17:25:38;;;;;;;9.57;7.03;;;;;;;2.96;100.00;97765.78;18288158;32;20525;-64
2022/12/06 17:35:41;;;;;;;9.53;7.20;;;;;;;2.91;100.00;97762.94;18301393;32;20050;-64
2022/12/06 17:45:44;;;;;;;9.67;6.90;;;;;;;2.89;100.00;97765.00;18300417;32;20073;-64
2022/12/06 17:55:47;;;;;;;10.27;7.13;;;;;;;2.88;100.00;97771.41;18286750;32;20351;-65
2022/12/06 18:05:49;;;;;;;10.20;7.33;;;;;;;2.85;100.00;97772.66;18299512;32;20062;-64
2022/12/06 18:15:52;;;;;;;9.83;7.63;;;;;;;2.87;100.00;97767.09;18299130;32;20076;-64
2022/12/06 18:25:55;;;;;;;9.10;6.60;;;;;;;2.87;100.00;97775.91;18299077;32;20105;-65
2022/12/06 18:35:59;;;;;;;8.87;6.50;;;;;;;2.86;100.00;97771.62;18298796;32;20374;-64
2022/12/06 18:46:04;;;;;;;8.33;5.90;;;;;;;2.87;100.00;97764.41;18297905;32;20470;-64
2022/12/06 18:56:10;;;;;;;9.13;6.67;;;;;;;2.87;100.00;97772.44;18297227;32;20550;-64
2022/12/06 19:06:17;;;;;;;;;;;;;;;2.88;100.00;97772.19;18297121;32;20086;-64
2022/12/06 19:16:29;;;;;;;9.00;6.50;;;;;;;2.86;100.00;97776.97;18283279;32;19949;-64
2022/12/06 19:26:33;;;;;;;10.43;7.10;;;;;;;2.86;100.00;97789.47;18296049;32;20112;-65
2022/12/06 19:36:36;;;;;;;10.40;6.80;;;;;;;2.86;100.00;97800.16;18295497;32;20050;-65
2022/12/06 19:46:42;;;;;;;9.43;6.97;;;;;;;2.86;100.00;97805.50;18295103;32;20449;-64
2022/12/06 19:56:44;;;;;;;11.40;7.70;;;;;;;2.85;100.00;97803.84;18294535;32;20058;-64
2022/12/06 20:06:48;;;;;;;12.63;8.63;;;;;;;2.85;100.00;97802.03;18230450;32;20101;-64
2022/12/06 20:16:51;;;;;;;14.83;9.27;;;;;;;2.83;100.00;97801.41;18239987;32;20073;-64
2022/12/06 20:26:54;;;;;;;11.13;8.03;;;;;;;2.86;100.00;97795.66;18241430;32;20055;-64
2022/12/06 20:36:57;;;;;;;9.63;6.53;;;;;;;2.86;100.00;97790.31;18241314;32;20050;-65
2022/12/06 20:47:00;;;;;;;7.97;5.83;;;;;;;2.87;100.00;97804.47;18239231;32;20084;-65
2022/12/06 20:57:07;;;;;;;13.87;8.27;;;;;;;2.86;100.00;97800.16;18239073;32;20426;-65
2022/12/06 21:07:09;;;;;;;11.00;7.77;;;;;;;2.87;100.00;97791.13;18302029;32;20054;-65
2022/12/06 21:17:12;;;;;;;13.20;8.87;;;;;;;2.91;100.00;97789.66;18288270;32;20072;-64
2022/12/06 21:27:14;;;;;;;12.10;7.97;;;;;;;2.92;100.00;97790.47;18301086;32;20062;-64
2022/12/06 21:37:17;;;;;;;11.77;8.47;;;;;;;2.91;100.00;97799.53;18301788;32;20050;-65
2022/12/06 21:47:20;;;;;;;12.33;7.67;;;;;;;2.91;100.00;97803.00;18287139;32;20061;-64
2022/12/06 21:57:22;;;;;;;12.27;8.90;;;;;;;2.87;100.00;97809.81;18299754;32;20414;-65
2022/12/06 22:07:25;;;;;;;12.53;8.97;;;;;;;2.87;100.00;97807.16;18300083;32;20493;-65
2022/12/06 22:17:28;;;;;;;11.23;7.23;;;;;;;2.83;100.00;97808.59;18299149;32;20117;-64
2022/12/06 22:27:31;;;;;;;12.03;7.03;;;;;;;2.75;100.00;97820.38;18298941;32;20438;-64
2022/12/06 22:37:34;;;;;;;11.73;7.23;;;;;;;2.75;100.00;97819.56;18297643;32;20050;-65
2022/12/06 22:47:36;;;;;;;10.20;6.07;;;;;;;2.73;100.00;97811.75;18297850;32;20125;-65
2022/12/06 22:57:39;;;;;;;11.47;7.27;;;;;;;2.71;100.00;97825.34;18296936;32;20076;-65
2022/12/06 23:07:42;;;;;;;12.83;7.70;;;;;;;2.70;100.00;97823.69;18296980;32;20093;-64
2022/12/06 23:17:45;;;;;;;11.10;7.37;;;;;;;2.71;100.00;97827.16;18296300;32;20094;-64
2022/12/06 23:27:47;;;;;;;13.20;7.60;;;;;;;2.71;100.00;97833.34;18295823;32;20105;-65
2022/12/06 23:37:50;;;;;;;12.07;8.07;;;;;;;2.69;100.00;97837.25;18295461;32;20396;-65
2022/12/06 23:47:52;;;;;;;11.23;7.50;;;;;;;2.70;100.00;97830.91;18280127;32;20117;-65
2022/12/06 23:57:55;;;;;;;8.40;6.23;;;;;;;2.69;100.00;97837.25;18280746;32;20391;-65
